sensor_id;sensor_type;location;lat;lon;timestamp;temperature;humidity
6824;DHT22;58633;49.470;11.004;2024-01-30T00:02:24;5.30;58.50
6824;DHT22;58633;49.470;11.004;2024-01-30T00:04:51;5.00;58.70
6824;DHT22;58633;49.470;11.004;2024-01-30T00:07:16;5.20;58.20
6824;DHT22;58633;49.470;11.004;2024-01-30T00:09:42;4.50;57.90
6824;DHT22;58633;49.470;11.004;2024-01-30T00:12:07;5.00;58.70
6824;DHT22;58633;49.470;11.004;2024-01-30T00:14:33;5.00;58.30
6824;DHT22;58633;49.470;11.004;2024-01-30T00:16:58;4.90;58.60
6824;DHT22;58633;49.470;11.004;2024-01-30T00:19:24;4.80;58.60
6824;DHT22;58633;49.470;11.004;2024-01-30T00:21:49;4.70;58.70
6824;DHT22;58633;49.470;11.004;2024-01-30T00:24:15;4.60;58.80
6824;DHT22;58633;49.470;11.004;2024-01-30T00:26:41;4.50;58.70
6824;DHT22;58633;49.470;11.004;2024-01-30T00:31:32;4.70;59.00
6824;DHT22;58633;49.470;11.004;2024-01-30T00:33:58;4.60;58.90
6824;DHT22;58633;49.470;11.004;2024-01-30T00:36:23;4.60;59.00
6824;DHT22;58633;49.470;11.004;2024-01-30T00:38:48;4.60;58.90
6824;DHT22;58633;49.470;11.004;2024-01-30T00:41:14;4.60;59.30
6824;DHT22;58633;49.470;11.004;2024-01-30T00:43:42;4.50;59.40
6824;DHT22;58633;49.470;11.004;2024-01-30T00:46:08;4.40;59.00
6824;DHT22;58633;49.470;11.004;2024-01-30T00:48:33;4.40;59.00
6824;DHT22;58633;49.470;11.004;2024-01-30T00:50:59;4.50;59.60
6824;DHT22;58633;49.470;11.004;2024-01-30T00:53:24;4.40;59.50
6824;DHT22;58633;49.470;11.004;2024-01-30T00:55:50;4.60;59.70
6824;DHT22;58633;49.470;11.004;2024-01-30T00:58:15;4.40;59.60
6824;DHT22;58633;49.470;11.004;2024-01-30T01:00:41;4.60;59.30
6824;DHT22;58633;49.470;11.004;2024-01-30T01:03:06;4.20;59.60
6824;DHT22;58633;49.470;11.004;2024-01-30T01:07:58;4.80;59.60
6824;DHT22;58633;49.470;11.004;2024-01-30T01:10:24;4.20;59.20
6824;DHT22;58633;49.470;11.004;2024-01-30T01:12:49;4.30;59.80
6824;DHT22;58633;49.470;11.004;2024-01-30T01:15:15;4.30;59.30
6824;DHT22;58633;49.470;11.004;2024-01-30T01:17:42;4.20;59.30
6824;DHT22;58633;49.470;11.004;2024-01-30T01:20:08;4.20;60.40
6824;DHT22;58633;49.470;11.004;2024-01-30T01:22:34;3.80;59.20
6824;DHT22;58633;49.470;11.004;2024-01-30T01:25:00;6.80;62.40
6824;DHT22;58633;49.470;11.004;2024-01-30T01:27:26;3.80;59.40
6824;DHT22;58633;49.470;11.004;2024-01-30T01:29:52;3.90;59.70
6824;DHT22;58633;49.470;11.004;2024-01-30T01:32:18;4.30;60.20
6824;DHT22;58633;49.470;11.004;2024-01-30T01:37:10;4.00;59.90
6824;DHT22;58633;49.470;11.004;2024-01-30T01:39:36;3.80;60.40
6824;DHT22;58633;49.470;11.004;2024-01-30T01:42:01;3.50;59.50
6824;DHT22;58633;49.470;11.004;2024-01-30T01:44:27;4.20;60.00
6824;DHT22;58633;49.470;11.004;2024-01-30T01:46:53;3.80;60.00
6824;DHT22;58633;49.470;11.004;2024-01-30T01:49:19;3.90;60.10
6824;DHT22;58633;49.470;11.004;2024-01-30T01:51:47;4.00;59.90
6824;DHT22;58633;49.470;11.004;2024-01-30T01:54:14;3.80;59.70
6824;DHT22;58633;49.470;11.004;2024-01-30T01:56:40;3.70;59.80
6824;DHT22;58633;49.470;11.004;2024-01-30T01:59:07;3.80;60.40
6824;DHT22;58633;49.470;11.004;2024-01-30T02:01:34;3.60;59.80
6824;DHT22;58633;49.470;11.004;2024-01-30T02:04:00;3.80;60.40
6824;DHT22;58633;49.470;11.004;2024-01-30T02:06:27;3.80;60.20
6824;DHT22;58633;49.470;11.004;2024-01-30T02:08:53;3.90;59.70
6824;DHT22;58633;49.470;11.004;2024-01-30T02:11:19;3.80;60.00
6824;DHT22;58633;49.470;11.004;2024-01-30T02:13:45;3.80;60.00
6824;DHT22;58633;49.470;11.004;2024-01-30T02:16:11;3.90;59.60
6824;DHT22;58633;49.470;11.004;2024-01-30T02:18:36;3.70;59.90
6824;DHT22;58633;49.470;11.004;2024-01-30T02:23:34;3.60;59.70
6824;DHT22;58633;49.470;11.004;2024-01-30T02:26:00;3.50;59.90
6824;DHT22;58633;49.470;11.004;2024-01-30T02:28:26;3.60;60.50
6824;DHT22;58633;49.470;11.004;2024-01-30T02:30:51;3.60;60.50
6824;DHT22;58633;49.470;11.004;2024-01-30T02:33:17;3.50;60.30
6824;DHT22;58633;49.470;11.004;2024-01-30T02:35:42;3.50;60.40
6824;DHT22;58633;49.470;11.004;2024-01-30T02:38:08;3.60;60.10
6824;DHT22;58633;49.470;11.004;2024-01-30T02:40:33;3.40;60.00
6824;DHT22;58633;49.470;11.004;2024-01-30T02:43:00;3.50;60.60
6824;DHT22;58633;49.470;11.004;2024-01-30T02:45:26;3.50;60.60
6824;DHT22;58633;49.470;11.004;2024-01-30T02:47:52;3.50;60.40
6824;DHT22;58633;49.470;11.004;2024-01-30T02:50:17;3.60;60.60
6824;DHT22;58633;49.470;11.004;2024-01-30T02:52:43;3.50;61.60
6824;DHT22;58633;49.470;11.004;2024-01-30T02:57:38;3.50;60.70
6824;DHT22;58633;49.470;11.004;2024-01-30T03:00:05;3.60;61.20
6824;DHT22;58633;49.470;11.004;2024-01-30T03:02:32;3.40;61.20
6824;DHT22;58633;49.470;11.004;2024-01-30T03:04:59;3.40;61.00
6824;DHT22;58633;49.470;11.004;2024-01-30T03:07:24;3.40;61.10
6824;DHT22;58633;49.470;11.004;2024-01-30T03:09:50;3.50;61.20
6824;DHT22;58633;49.470;11.004;2024-01-30T03:12:15;3.40;61.30
6824;DHT22;58633;49.470;11.004;2024-01-30T03:14:41;3.40;61.20
6824;DHT22;58633;49.470;11.004;2024-01-30T03:17:06;3.40;61.30
6824;DHT22;58633;49.470;11.004;2024-01-30T03:19:32;3.90;61.40
6824;DHT22;58633;49.470;11.004;2024-01-30T03:21:57;3.50;62.10
6824;DHT22;58633;49.470;11.004;2024-01-30T03:24:23;4.10;61.60
6824;DHT22;58633;49.470;11.004;2024-01-30T03:26:49;3.40;61.40
6824;DHT22;58633;49.470;11.004;2024-01-30T03:29:14;3.70;61.60
6824;DHT22;58633;49.470;11.004;2024-01-30T03:31:40;3.40;61.50
6824;DHT22;58633;49.470;11.004;2024-01-30T03:34:06;3.50;61.60
6824;DHT22;58633;49.470;11.004;2024-01-30T03:36:31;3.40;61.40
6824;DHT22;58633;49.470;11.004;2024-01-30T03:38:59;3.50;61.60
6824;DHT22;58633;49.470;11.004;2024-01-30T03:41:25;3.50;61.80
6824;DHT22;58633;49.470;11.004;2024-01-30T03:43:50;4.90;62.50
6824;DHT22;58633;49.470;11.004;2024-01-30T03:46:16;3.40;61.60
6824;DHT22;58633;49.470;11.004;2024-01-30T03:48:42;3.40;61.70
6824;DHT22;58633;49.470;11.004;2024-01-30T03:51:07;3.20;61.00
6824;DHT22;58633;49.470;11.004;2024-01-30T03:53:33;3.50;61.40
6824;DHT22;58633;49.470;11.004;2024-01-30T03:55:59;3.50;61.90
6824;DHT22;58633;49.470;11.004;2024-01-30T03:58:24;3.60;61.90
6824;DHT22;58633;49.470;11.004;2024-01-30T04:00:50;3.30;61.70
6824;DHT22;58633;49.470;11.004;2024-01-30T04:03:15;3.90;61.70
6824;DHT22;58633;49.470;11.004;2024-01-30T04:05:42;3.50;61.80
6824;DHT22;58633;49.470;11.004;2024-01-30T04:08:08;3.30;61.80
6824;DHT22;58633;49.470;11.004;2024-01-30T04:10:33;3.30;61.90
6824;DHT22;58633;49.470;11.004;2024-01-30T04:12:59;3.30;61.90
6824;DHT22;58633;49.470;11.004;2024-01-30T04:15:25;3.60;61.70
6824;DHT22;58633;49.470;11.004;2024-01-30T04:17:51;6.20;64.60
6824;DHT22;58633;49.470;11.004;2024-01-30T04:20:17;3.40;62.20
6824;DHT22;58633;49.470;11.004;2024-01-30T04:22:46;3.40;61.90
6824;DHT22;58633;49.470;11.004;2024-01-30T04:27:38;3.50;61.80
6824;DHT22;58633;49.470;11.004;2024-01-30T04:30:04;3.50;61.70
6824;DHT22;58633;49.470;11.004;2024-01-30T04:32:29;3.30;61.50
6824;DHT22;58633;49.470;11.004;2024-01-30T04:34:55;3.40;61.60
6824;DHT22;58633;49.470;11.004;2024-01-30T04:37:21;3.50;62.20
6824;DHT22;58633;49.470;11.004;2024-01-30T04:39:46;3.70;61.90
6824;DHT22;58633;49.470;11.004;2024-01-30T04:42:12;7.10;65.90
6824;DHT22;58633;49.470;11.004;2024-01-30T04:44:38;3.30;62.10
6824;DHT22;58633;49.470;11.004;2024-01-30T04:47:04;3.30;62.20
6824;DHT22;58633;49.470;11.004;2024-01-30T04:49:31;3.60;62.60
6824;DHT22;58633;49.470;11.004;2024-01-30T04:51:57;3.40;62.50
6824;DHT22;58633;49.470;11.004;2024-01-30T04:54:23;3.30;62.50
6824;DHT22;58633;49.470;11.004;2024-01-30T04:56:48;3.40;62.60
6824;DHT22;58633;49.470;11.004;2024-01-30T04:59:14;3.40;62.50
6824;DHT22;58633;49.470;11.004;2024-01-30T05:01:39;3.30;62.50
6824;DHT22;58633;49.470;11.004;2024-01-30T05:04:07;3.30;62.40
6824;DHT22;58633;49.470;11.004;2024-01-30T05:06:33;3.70;62.30
6824;DHT22;58633;49.470;11.004;2024-01-30T05:08:59;3.60;62.10
6824;DHT22;58633;49.470;11.004;2024-01-30T05:11:24;3.30;62.40
6824;DHT22;58633;49.470;11.004;2024-01-30T05:13:50;3.50;62.50
6824;DHT22;58633;49.470;11.004;2024-01-30T05:16:15;3.50;62.40
6824;DHT22;58633;49.470;11.004;2024-01-30T05:18:41;3.30;62.30
6824;DHT22;58633;49.470;11.004;2024-01-30T05:21:06;3.50;62.50
6824;DHT22;58633;49.470;11.004;2024-01-30T05:23:32;3.50;62.60
6824;DHT22;58633;49.470;11.004;2024-01-30T05:25:57;3.50;62.60
6824;DHT22;58633;49.470;11.004;2024-01-30T05:28:26;3.60;62.80
6824;DHT22;58633;49.470;11.004;2024-01-30T05:30:51;3.50;62.60
6824;DHT22;58633;49.470;11.004;2024-01-30T05:33:17;3.50;62.50
6824;DHT22;58633;49.470;11.004;2024-01-30T05:35:42;3.50;62.60
6824;DHT22;58633;49.470;11.004;2024-01-30T05:38:08;3.40;62.70
6824;DHT22;58633;49.470;11.004;2024-01-30T05:40:33;3.50;62.80
6824;DHT22;58633;49.470;11.004;2024-01-30T05:42:59;3.50;62.70
6824;DHT22;58633;49.470;11.004;2024-01-30T05:45:26;3.60;62.90
6824;DHT22;58633;49.470;11.004;2024-01-30T05:47:52;6.20;65.20
6824;DHT22;58633;49.470;11.004;2024-01-30T05:50:18;3.50;62.70
6824;DHT22;58633;49.470;11.004;2024-01-30T05:52:44;3.60;62.70
6824;DHT22;58633;49.470;11.004;2024-01-30T05:55:10;3.60;62.10
6824;DHT22;58633;49.470;11.004;2024-01-30T05:57:37;3.40;62.40
6824;DHT22;58633;49.470;11.004;2024-01-30T06:00:03;3.50;62.20
6824;DHT22;58633;49.470;11.004;2024-01-30T06:02:29;3.60;62.30
6824;DHT22;58633;49.470;11.004;2024-01-30T06:04:54;3.50;62.70
6824;DHT22;58633;49.470;11.004;2024-01-30T06:07:20;3.50;62.60
6824;DHT22;58633;49.470;11.004;2024-01-30T06:09:46;3.60;62.40
6824;DHT22;58633;49.470;11.004;2024-01-30T06:12:12;3.70;63.00
6824;DHT22;58633;49.470;11.004;2024-01-30T06:14:37;3.60;62.80
6824;DHT22;58633;49.470;11.004;2024-01-30T06:17:03;4.30;63.10
6824;DHT22;58633;49.470;11.004;2024-01-30T06:19:29;3.60;62.90
6824;DHT22;58633;49.470;11.004;2024-01-30T06:21:54;3.70;63.00
6824;DHT22;58633;49.470;11.004;2024-01-30T06:24:20;3.60;62.90
6824;DHT22;58633;49.470;11.004;2024-01-30T06:26:45;3.70;62.80
6824;DHT22;58633;49.470;11.004;2024-01-30T06:29:11;3.50;62.10
6824;DHT22;58633;49.470;11.004;2024-01-30T06:31:40;3.70;62.80
6824;DHT22;58633;49.470;11.004;2024-01-30T06:34:07;3.90;62.50
6824;DHT22;58633;49.470;11.004;2024-01-30T06:36:32;5.20;64.20
6824;DHT22;58633;49.470;11.004;2024-01-30T06:38:58;3.60;62.70
6824;DHT22;58633;49.470;11.004;2024-01-30T06:41:23;3.60;62.30
6824;DHT22;58633;49.470;11.004;2024-01-30T06:43:50;3.60;63.40
6824;DHT22;58633;49.470;11.004;2024-01-30T06:48:41;3.60;62.30
6824;DHT22;58633;49.470;11.004;2024-01-30T06:51:10;3.70;63.00
6824;DHT22;58633;49.470;11.004;2024-01-30T06:53:36;3.50;63.00
6824;DHT22;58633;49.470;11.004;2024-01-30T06:56:02;3.50;63.00
6824;DHT22;58633;49.470;11.004;2024-01-30T06:58:27;4.60;64.10
6824;DHT22;58633;49.470;11.004;2024-01-30T07:00:54;3.80;63.80
6824;DHT22;58633;49.470;11.004;2024-01-30T07:03:20;3.80;63.40
6824;DHT22;58633;49.470;11.004;2024-01-30T07:05:45;3.90;63.00
6824;DHT22;58633;49.470;11.004;2024-01-30T07:08:11;4.30;63.20
6824;DHT22;58633;49.470;11.004;2024-01-30T07:10:36;4.00;63.40
6824;DHT22;58633;49.470;11.004;2024-01-30T07:13:02;4.10;62.80
6824;DHT22;58633;49.470;11.004;2024-01-30T07:15:29;4.00;62.50
6824;DHT22;58633;49.470;11.004;2024-01-30T07:17:55;3.90;62.40
6824;DHT22;58633;49.470;11.004;2024-01-30T07:20:20;3.70;62.30
6824;DHT22;58633;49.470;11.004;2024-01-30T07:22:46;3.80;62.60
6824;DHT22;58633;49.470;11.004;2024-01-30T07:25:12;3.60;62.10
6824;DHT22;58633;49.470;11.004;2024-01-30T07:27:37;3.80;62.80
6824;DHT22;58633;49.470;11.004;2024-01-30T07:30:03;3.80;62.80
6824;DHT22;58633;49.470;11.004;2024-01-30T07:32:29;4.30;63.00
6824;DHT22;58633;49.470;11.004;2024-01-30T07:34:54;3.90;63.10
6824;DHT22;58633;49.470;11.004;2024-01-30T07:37:20;4.00;62.80
6824;DHT22;58633;49.470;11.004;2024-01-30T07:39:47;3.90;62.70
6824;DHT22;58633;49.470;11.004;2024-01-30T07:42:12;3.90;62.70
6824;DHT22;58633;49.470;11.004;2024-01-30T07:44:38;4.10;62.80
6824;DHT22;58633;49.470;11.004;2024-01-30T07:47:04;4.10;62.60
6824;DHT22;58633;49.470;11.004;2024-01-30T07:49:30;4.20;63.00
6824;DHT22;58633;49.470;11.004;2024-01-30T07:51:55;4.20;62.90
6824;DHT22;58633;49.470;11.004;2024-01-30T07:54:21;4.80;63.40
6824;DHT22;58633;49.470;11.004;2024-01-30T07:56:46;4.20;62.60
6824;DHT22;58633;49.470;11.004;2024-01-30T07:59:12;4.10;62.60
6824;DHT22;58633;49.470;11.004;2024-01-30T08:01:38;4.20;62.70
6824;DHT22;58633;49.470;11.004;2024-01-30T08:04:04;4.20;62.90
6824;DHT22;58633;49.470;11.004;2024-01-30T08:06:29;4.30;62.60
6824;DHT22;58633;49.470;11.004;2024-01-30T08:08:55;4.20;62.30
6824;DHT22;58633;49.470;11.004;2024-01-30T08:11:21;4.30;62.60
6824;DHT22;58633;49.470;11.004;2024-01-30T08:13:51;4.20;62.60
6824;DHT22;58633;49.470;11.004;2024-01-30T08:16:17;4.30;62.70
6824;DHT22;58633;49.470;11.004;2024-01-30T08:21:08;4.40;62.20
6824;DHT22;58633;49.470;11.004;2024-01-30T08:23:34;4.20;63.20
6824;DHT22;58633;49.470;11.004;2024-01-30T08:26:00;4.40;62.80
6824;DHT22;58633;49.470;11.004;2024-01-30T08:28:25;4.50;62.70
6824;DHT22;58633;49.470;11.004;2024-01-30T08:33:17;4.50;62.10
6824;DHT22;58633;49.470;11.004;2024-01-30T08:35:43;4.50;62.50
6824;DHT22;58633;49.470;11.004;2024-01-30T08:38:08;4.60;62.50
6824;DHT22;58633;49.470;11.004;2024-01-30T08:40:34;5.30;62.60
6824;DHT22;58633;49.470;11.004;2024-01-30T08:43:00;4.80;62.10
6824;DHT22;58633;49.470;11.004;2024-01-30T08:45:26;4.60;62.40
6824;DHT22;58633;49.470;11.004;2024-01-30T08:47:51;4.80;62.50
6824;DHT22;58633;49.470;11.004;2024-01-30T08:50:17;4.80;61.90
6824;DHT22;58633;49.470;11.004;2024-01-30T08:52:43;7.40;64.80
6824;DHT22;58633;49.470;11.004;2024-01-30T08:55:09;4.80;62.40
6824;DHT22;58633;49.470;11.004;2024-01-30T08:57:34;4.80;61.60
6824;DHT22;58633;49.470;11.004;2024-01-30T09:00:00;4.90;62.30
6824;DHT22;58633;49.470;11.004;2024-01-30T09:02:27;5.40;62.20
6824;DHT22;58633;49.470;11.004;2024-01-30T09:04:53;4.90;62.20
6824;DHT22;58633;49.470;11.004;2024-01-30T09:07:18;4.70;61.30
6824;DHT22;58633;49.470;11.004;2024-01-30T09:09:44;5.20;62.30
6824;DHT22;58633;49.470;11.004;2024-01-30T09:12:10;5.30;61.60
6824;DHT22;58633;49.470;11.004;2024-01-30T09:14:37;5.20;61.50
6824;DHT22;58633;49.470;11.004;2024-01-30T09:17:03;5.40;61.60
6824;DHT22;58633;49.470;11.004;2024-01-30T09:19:30;5.40;62.20
6824;DHT22;58633;49.470;11.004;2024-01-30T09:21:55;5.60;62.10
6824;DHT22;58633;49.470;11.004;2024-01-30T09:24:21;5.50;61.90
6824;DHT22;58633;49.470;11.004;2024-01-30T09:26:46;7.00;60.60
6824;DHT22;58633;49.470;11.004;2024-01-30T09:29:12;7.00;59.60
6824;DHT22;58633;49.470;11.004;2024-01-30T09:31:37;6.80;59.80
6824;DHT22;58633;49.470;11.004;2024-01-30T09:34:03;6.60;59.80
6824;DHT22;58633;49.470;11.004;2024-01-30T09:36:29;6.50;59.60
6824;DHT22;58633;49.470;11.004;2024-01-30T09:38:54;6.40;60.00
6824;DHT22;58633;49.470;11.004;2024-01-30T09:41:20;6.20;60.00
6824;DHT22;58633;49.470;11.004;2024-01-30T09:43:50;6.20;60.10
6824;DHT22;58633;49.470;11.004;2024-01-30T09:46:17;6.30;59.60
6824;DHT22;58633;49.470;11.004;2024-01-30T09:48:46;6.20;60.10
6824;DHT22;58633;49.470;11.004;2024-01-30T09:51:14;6.30;60.20
6824;DHT22;58633;49.470;11.004;2024-01-30T09:53:42;6.20;60.00
6824;DHT22;58633;49.470;11.004;2024-01-30T09:56:08;6.20;60.20
6824;DHT22;58633;49.470;11.004;2024-01-30T09:58:34;6.40;60.50
6824;DHT22;58633;49.470;11.004;2024-01-30T10:00:59;6.40;60.40
6824;DHT22;58633;49.470;11.004;2024-01-30T10:03:25;6.30;60.40
6824;DHT22;58633;49.470;11.004;2024-01-30T10:05:52;6.90;60.30
6824;DHT22;58633;49.470;11.004;2024-01-30T10:08:20;6.50;60.40
6824;DHT22;58633;49.470;11.004;2024-01-30T10:10:47;6.50;60.40
6824;DHT22;58633;49.470;11.004;2024-01-30T10:13:13;6.60;60.40
6824;DHT22;58633;49.470;11.004;2024-01-30T10:15:38;6.70;59.90
6824;DHT22;58633;49.470;11.004;2024-01-30T10:18:05;6.80;59.80
6824;DHT22;58633;49.470;11.004;2024-01-30T10:20:32;6.70;60.10
6824;DHT22;58633;49.470;11.004;2024-01-30T10:22:58;6.70;60.00
6824;DHT22;58633;49.470;11.004;2024-01-30T10:25:23;6.80;60.00
6824;DHT22;58633;49.470;11.004;2024-01-30T10:27:55;6.90;60.00
6824;DHT22;58633;49.470;11.004;2024-01-30T10:30:22;7.00;60.00
6824;DHT22;58633;49.470;11.004;2024-01-30T10:32:48;7.00;59.80
6824;DHT22;58633;49.470;11.004;2024-01-30T10:35:13;6.90;59.80
6824;DHT22;58633;49.470;11.004;2024-01-30T10:37:39;7.00;59.90
6824;DHT22;58633;49.470;11.004;2024-01-30T10:40:05;7.00;59.80
6824;DHT22;58633;49.470;11.004;2024-01-30T10:42:32;7.00;59.80
6824;DHT22;58633;49.470;11.004;2024-01-30T10:45:08;7.00;59.20
6824;DHT22;58633;49.470;11.004;2024-01-30T10:47:35;7.30;59.80
6824;DHT22;58633;49.470;11.004;2024-01-30T10:50:03;7.20;59.70
6824;DHT22;58633;49.470;11.004;2024-01-30T10:52:31;7.90;59.60
6824;DHT22;58633;49.470;11.004;2024-01-30T10:54:57;7.40;59.70
6824;DHT22;58633;49.470;11.004;2024-01-30T10:57:24;7.50;59.30
6824;DHT22;58633;49.470;11.004;2024-01-30T10:59:57;7.30;59.50
6824;DHT22;58633;49.470;11.004;2024-01-30T11:02:24;7.50;59.60
6824;DHT22;58633;49.470;11.004;2024-01-30T11:04:55;7.90;59.10
6824;DHT22;58633;49.470;11.004;2024-01-30T11:07:29;7.80;59.40
6824;DHT22;58633;49.470;11.004;2024-01-30T11:12:27;7.90;59.30
6824;DHT22;58633;49.470;11.004;2024-01-30T11:20:16;8.10;59.20
6824;DHT22;58633;49.470;11.004;2024-01-30T11:22:45;8.00;59.10
6824;DHT22;58633;49.470;11.004;2024-01-30T11:25:12;8.20;59.20
6824;DHT22;58633;49.470;11.004;2024-01-30T11:27:38;8.20;58.90
6824;DHT22;58633;49.470;11.004;2024-01-30T11:30:05;8.40;58.90
6824;DHT22;58633;49.470;11.004;2024-01-30T11:32:30;8.60;58.90
6824;DHT22;58633;49.470;11.004;2024-01-30T11:34:56;8.60;58.70
6824;DHT22;58633;49.470;11.004;2024-01-30T11:37:25;8.60;58.40
6824;DHT22;58633;49.470;11.004;2024-01-30T11:39:53;8.70;58.40
6824;DHT22;58633;49.470;11.004;2024-01-30T11:42:19;8.70;58.40
6824;DHT22;58633;49.470;11.004;2024-01-30T11:44:48;8.70;58.30
6824;DHT22;58633;49.470;11.004;2024-01-30T11:47:14;8.80;58.00
6824;DHT22;58633;49.470;11.004;2024-01-30T11:49:41;8.80;58.40
6824;DHT22;58633;49.470;11.004;2024-01-30T11:52:07;9.00;58.60
6824;DHT22;58633;49.470;11.004;2024-01-30T11:54:32;9.00;58.30
6824;DHT22;58633;49.470;11.004;2024-01-30T11:56:58;9.00;58.20
6824;DHT22;58633;49.470;11.004;2024-01-30T11:59:24;9.00;58.10
6824;DHT22;58633;49.470;11.004;2024-01-30T12:01:51;9.20;58.10
6824;DHT22;58633;49.470;11.004;2024-01-30T12:04:17;10.80;58.40
6824;DHT22;58633;49.470;11.004;2024-01-30T12:06:43;9.20;58.00
6824;DHT22;58633;49.470;11.004;2024-01-30T12:09:09;9.30;57.90
6824;DHT22;58633;49.470;11.004;2024-01-30T12:11:48;9.30;57.80
6824;DHT22;58633;49.470;11.004;2024-01-30T12:14:16;11.20;58.30
6824;DHT22;58633;49.470;11.004;2024-01-30T12:16:42;9.50;57.60
6824;DHT22;58633;49.470;11.004;2024-01-30T12:19:08;9.60;57.50
6824;DHT22;58633;49.470;11.004;2024-01-30T12:21:34;9.90;57.60
6824;DHT22;58633;49.470;11.004;2024-01-30T12:24:00;9.90;57.50
6824;DHT22;58633;49.470;11.004;2024-01-30T12:26:26;9.90;57.20
6824;DHT22;58633;49.470;11.004;2024-01-30T12:28:54;10.00;56.10
6824;DHT22;58633;49.470;11.004;2024-01-30T12:31:32;9.90;56.80
6824;DHT22;58633;49.470;11.004;2024-01-30T12:33:59;10.00;55.90
6824;DHT22;58633;49.470;11.004;2024-01-30T12:36:25;10.10;56.00
6824;DHT22;58633;49.470;11.004;2024-01-30T12:38:51;10.10;55.90
6824;DHT22;58633;49.470;11.004;2024-01-30T12:41:17;10.10;55.90
6824;DHT22;58633;49.470;11.004;2024-01-30T12:43:43;10.20;56.00
6824;DHT22;58633;49.470;11.004;2024-01-30T12:46:09;10.10;55.60
6824;DHT22;58633;49.470;11.004;2024-01-30T12:48:35;10.30;55.80
6824;DHT22;58633;49.470;11.004;2024-01-30T12:51:00;10.30;55.80
6824;DHT22;58633;49.470;11.004;2024-01-30T12:53:26;10.40;55.80
6824;DHT22;58633;49.470;11.004;2024-01-30T12:55:52;10.50;55.60
6824;DHT22;58633;49.470;11.004;2024-01-30T12:58:19;12.50;57.40
6824;DHT22;58633;49.470;11.004;2024-01-30T13:00:45;10.50;55.60
6824;DHT22;58633;49.470;11.004;2024-01-30T13:03:10;10.60;55.50
6824;DHT22;58633;49.470;11.004;2024-01-30T13:05:37;10.60;55.50
6824;DHT22;58633;49.470;11.004;2024-01-30T13:08:02;10.60;55.20
6824;DHT22;58633;49.470;11.004;2024-01-30T13:10:28;10.80;55.20
6824;DHT22;58633;49.470;11.004;2024-01-30T13:12:54;11.00;55.40
6824;DHT22;58633;49.470;11.004;2024-01-30T13:15:19;11.10;55.10
6824;DHT22;58633;49.470;11.004;2024-01-30T13:17:45;11.30;55.00
6824;DHT22;58633;49.470;11.004;2024-01-30T13:20:13;11.40;54.80
6824;DHT22;58633;49.470;11.004;2024-01-30T13:22:43;11.60;54.60
6824;DHT22;58633;49.470;11.004;2024-01-30T13:25:08;11.70;54.30
6824;DHT22;58633;49.470;11.004;2024-01-30T13:27:34;11.70;54.10
6824;DHT22;58633;49.470;11.004;2024-01-30T13:29:59;11.90;54.10
6824;DHT22;58633;49.470;11.004;2024-01-30T13:32:25;11.50;53.60
6824;DHT22;58633;49.470;11.004;2024-01-30T13:34:51;11.80;54.30
6824;DHT22;58633;49.470;11.004;2024-01-30T13:37:16;11.60;54.00
6824;DHT22;58633;49.470;11.004;2024-01-30T13:39:42;11.60;53.80
6824;DHT22;58633;49.470;11.004;2024-01-30T13:42:07;11.70;54.00
6824;DHT22;58633;49.470;11.004;2024-01-30T13:44:35;11.70;54.10
6824;DHT22;58633;49.470;11.004;2024-01-30T13:47:00;11.80;54.10
6824;DHT22;58633;49.470;11.004;2024-01-30T13:49:26;12.10;54.30
6824;DHT22;58633;49.470;11.004;2024-01-30T13:51:52;12.10;54.00
6824;DHT22;58633;49.470;11.004;2024-01-30T13:54:17;11.80;53.70
6824;DHT22;58633;49.470;11.004;2024-01-30T13:56:43;12.00;53.80
6824;DHT22;58633;49.470;11.004;2024-01-30T13:59:08;11.90;53.70
6824;DHT22;58633;49.470;11.004;2024-01-30T14:01:34;11.90;53.60
6824;DHT22;58633;49.470;11.004;2024-01-30T14:03:59;11.80;53.60
6824;DHT22;58633;49.470;11.004;2024-01-30T14:06:25;11.60;53.70
6824;DHT22;58633;49.470;11.004;2024-01-30T14:08:51;11.60;53.80
6824;DHT22;58633;49.470;11.004;2024-01-30T14:11:16;11.60;53.90
6824;DHT22;58633;49.470;11.004;2024-01-30T14:13:42;11.50;53.80
6824;DHT22;58633;49.470;11.004;2024-01-30T14:16:07;11.40;53.70
6824;DHT22;58633;49.470;11.004;2024-01-30T14:18:33;11.50;54.10
6824;DHT22;58633;49.470;11.004;2024-01-30T14:20:58;11.20;54.00
6824;DHT22;58633;49.470;11.004;2024-01-30T14:23:24;11.40;54.30
6824;DHT22;58633;49.470;11.004;2024-01-30T14:25:49;11.30;54.30
6824;DHT22;58633;49.470;11.004;2024-01-30T14:28:16;11.50;55.10
6824;DHT22;58633;49.470;11.004;2024-01-30T14:30:42;11.30;54.50
6824;DHT22;58633;49.470;11.004;2024-01-30T14:33:08;11.30;54.60
6824;DHT22;58633;49.470;11.004;2024-01-30T14:35:33;11.20;54.30
6824;DHT22;58633;49.470;11.004;2024-01-30T14:37:59;11.20;54.50
6824;DHT22;58633;49.470;11.004;2024-01-30T14:40:24;11.10;54.80
6824;DHT22;58633;49.470;11.004;2024-01-30T14:42:50;11.40;55.10
6824;DHT22;58633;49.470;11.004;2024-01-30T14:45:16;11.30;54.70
6824;DHT22;58633;49.470;11.004;2024-01-30T14:47:42;11.30;54.90
6824;DHT22;58633;49.470;11.004;2024-01-30T14:50:08;12.30;55.60
6824;DHT22;58633;49.470;11.004;2024-01-30T14:52:34;11.30;54.90
6824;DHT22;58633;49.470;11.004;2024-01-30T14:54:59;11.20;54.90
6824;DHT22;58633;49.470;11.004;2024-01-30T14:57:25;11.30;55.10
6824;DHT22;58633;49.470;11.004;2024-01-30T14:59:51;11.30;55.20
6824;DHT22;58633;49.470;11.004;2024-01-30T15:02:16;11.20;55.10
6824;DHT22;58633;49.470;11.004;2024-01-30T15:04:42;11.00;55.50
6824;DHT22;58633;49.470;11.004;2024-01-30T15:07:08;11.20;55.20
6824;DHT22;58633;49.470;11.004;2024-01-30T15:09:33;11.00;55.20
6824;DHT22;58633;49.470;11.004;2024-01-30T15:11:59;11.00;55.30
6824;DHT22;58633;49.470;11.004;2024-01-30T15:14:24;11.00;55.30
6824;DHT22;58633;49.470;11.004;2024-01-30T15:16:50;14.20;58.10
6824;DHT22;58633;49.470;11.004;2024-01-30T15:19:16;10.90;55.40
6824;DHT22;58633;49.470;11.004;2024-01-30T15:21:41;11.00;55.60
6824;DHT22;58633;49.470;11.004;2024-01-30T15:24:07;10.90;55.60
6824;DHT22;58633;49.470;11.004;2024-01-30T15:26:32;10.80;55.50
6824;DHT22;58633;49.470;11.004;2024-01-30T15:28:58;10.70;55.60
6824;DHT22;58633;49.470;11.004;2024-01-30T15:31:23;10.60;55.60
6824;DHT22;58633;49.470;11.004;2024-01-30T15:33:49;10.60;55.80
6824;DHT22;58633;49.470;11.004;2024-01-30T15:36:15;10.70;56.10
6824;DHT22;58633;49.470;11.004;2024-01-30T15:38:41;10.60;56.00
6824;DHT22;58633;49.470;11.004;2024-01-30T15:41:07;10.60;56.30
6824;DHT22;58633;49.470;11.004;2024-01-30T15:43:32;10.60;56.30
6824;DHT22;58633;49.470;11.004;2024-01-30T15:46:01;10.60;56.30
6824;DHT22;58633;49.470;11.004;2024-01-30T15:48:27;10.50;56.30
6824;DHT22;58633;49.470;11.004;2024-01-30T15:50:52;10.60;56.40
6824;DHT22;58633;49.470;11.004;2024-01-30T15:53:20;10.40;56.40
6824;DHT22;58633;49.470;11.004;2024-01-30T15:55:46;10.30;56.40
6824;DHT22;58633;49.470;11.004;2024-01-30T15:58:12;10.40;56.60
6824;DHT22;58633;49.470;11.004;2024-01-30T16:00:38;10.40;56.60
6824;DHT22;58633;49.470;11.004;2024-01-30T16:03:04;10.20;56.60
6824;DHT22;58633;49.470;11.004;2024-01-30T16:05:30;10.30;56.70